createdAt,value
2023-03-02T00:01:41.818Z,0.80
2023-03-02T00:04:14.491Z,0.70
2023-03-02T00:06:42.203Z,0.70
2023-03-02T00:09:09.220Z,0.70
2023-03-02T00:11:39.136Z,0.70
2023-03-02T00:14:06.956Z,0.60
2023-03-02T00:16:34.918Z,0.60
2023-03-02T00:19:02.332Z,0.60
2023-03-02T00:21:29.282Z,0.60
2023-03-02T00:23:56.306Z,0.60
2023-03-02T00:26:23.424Z,0.50
2023-03-02T00:28:50.424Z,0.50
2023-03-02T00:31:17.552Z,0.50
2023-03-02T00:33:44.640Z,0.50
2023-03-02T00:36:20.531Z,0.50
2023-03-02T00:38:48.105Z,0.50
2023-03-02T00:41:16.323Z,0.50
2023-03-02T00:43:43.386Z,0.50
2023-03-02T00:46:15.419Z,0.40
2023-03-02T00:48:42.979Z,0.40
2023-03-02T00:51:10.212Z,0.40
2023-03-02T00:53:38.173Z,0.40
2023-03-02T00:56:06.701Z,0.40
2023-03-02T00:58:37.376Z,0.30
2023-03-02T01:01:10.387Z,0.40
2023-03-02T01:03:40.496Z,0.30
2023-03-02T01:06:18.234Z,0.30
2023-03-02T01:08:46.024Z,0.30
2023-03-02T01:11:18.230Z,0.30
2023-03-02T01:13:46.220Z,0.30
2023-03-02T01:16:13.740Z,0.30
2023-03-02T01:18:40.924Z,0.30
2023-03-02T01:21:12.395Z,0.30
2023-03-02T01:23:39.529Z,0.20
2023-03-02T01:26:07.603Z,0.20
2023-03-02T01:28:34.618Z,0.20
2023-03-02T01:31:03.292Z,0.20
2023-03-02T01:33:31.261Z,0.20
2023-03-02T01:35:58.284Z,0.20
2023-03-02T01:38:25.500Z,0.20
2023-03-02T01:40:52.478Z,0.20
2023-03-02T01:43:19.542Z,0.20
2023-03-02T01:46:08.191Z,0.10
2023-03-02T01:49:03.646Z,0.10
2023-03-02T01:51:47.068Z,0.10
2023-03-02T01:54:23.086Z,0.10
2023-03-02T01:56:58.301Z,0.00
2023-03-02T01:59:28.246Z,0.00
2023-03-02T02:01:58.769Z,0.00
2023-03-02T02:04:28.497Z,0.00
2023-03-02T02:06:59.872Z,0.00
2023-03-02T02:09:30.297Z,0.00
2023-03-02T02:11:57.510Z,0.00
2023-03-02T02:14:25.130Z,0.00
2023-03-02T02:16:53.137Z,0.00
2023-03-02T02:19:35.148Z,0.00
2023-03-02T02:22:03.001Z,0.00
2023-03-02T02:24:34.041Z,0.00
2023-03-02T02:27:01.474Z,-3276.70
2023-03-02T02:29:37.238Z,-3276.70
2023-03-02T02:32:32.769Z,-3276.70
2023-03-02T02:35:07.045Z,-3276.70
2023-03-02T02:37:40.408Z,-3276.70
2023-03-02T02:40:15.405Z,-3276.70
2023-03-02T02:42:46.102Z,-3276.60
2023-03-02T02:45:24.020Z,-3276.60
2023-03-02T02:47:52.463Z,-3276.60
2023-03-02T02:50:32.646Z,-3276.60
2023-03-02T02:53:34.844Z,-3276.60
2023-03-02T02:56:03.002Z,-3276.60
2023-03-02T02:58:43.456Z,-3276.60
2023-03-02T03:01:26.162Z,-3276.50
2023-03-02T03:03:58.599Z,-3276.50
2023-03-02T03:06:30.615Z,-3276.50
2023-03-02T03:09:00.788Z,-3276.50
2023-03-02T03:11:40.425Z,-3276.50
2023-03-02T03:14:17.649Z,-3276.50
2023-03-02T03:16:48.394Z,-3276.40
2023-03-02T03:19:32.347Z,-3276.40
2023-03-02T03:22:02.007Z,-3276.40
2023-03-02T03:24:34.942Z,-3276.40
2023-03-02T03:27:05.661Z,-3276.40
2023-03-02T03:29:36.970Z,-3276.40
2023-03-02T03:32:07.019Z,-3276.40
2023-03-02T03:34:40.808Z,-3276.30
2023-03-02T03:37:18.667Z,-3276.40
2023-03-02T03:39:46.746Z,-3276.40
2023-03-02T03:42:13.950Z,-3276.40
2023-03-02T03:44:41.107Z,-3276.30
2023-03-02T03:47:08.480Z,-3276.30
2023-03-02T03:49:35.660Z,-3276.30
2023-03-02T03:52:03.802Z,-3276.30
2023-03-02T03:54:31.248Z,-3276.30
2023-03-02T03:56:58.198Z,-3276.30
2023-03-02T03:59:26.859Z,-3276.30
2023-03-02T04:02:01.240Z,-3276.30
2023-03-02T04:04:37.441Z,-3276.30
2023-03-02T04:07:14.586Z,-3276.30
2023-03-02T04:09:42.989Z,-3276.30
2023-03-02T04:12:12.661Z,-3276.20
2023-03-02T04:14:43.403Z,-3276.30
2023-03-02T04:17:11.569Z,-3276.30
2023-03-02T04:19:42.441Z,-3276.20
2023-03-02T04:22:10.259Z,-3276.20
2023-03-02T04:24:37.403Z,-3276.20
2023-03-02T04:27:05.005Z,-3276.20
2023-03-02T04:29:33.560Z,-3276.20
2023-03-02T04:32:03.534Z,-3276.20
2023-03-02T04:34:33.062Z,-3276.20
2023-03-02T04:37:00.411Z,-3276.20
2023-03-02T04:39:27.484Z,-3276.20
2023-03-02T04:41:55.201Z,-3276.20
2023-03-02T04:44:22.169Z,-3276.20
2023-03-02T04:46:49.858Z,-3276.20
2023-03-02T04:49:18.884Z,-3276.20
2023-03-02T04:51:48.663Z,-3276.20
2023-03-02T04:54:22.504Z,-3276.10
2023-03-02T04:56:51.490Z,-3276.10
2023-03-02T04:59:26.126Z,-3276.10
2023-03-02T05:01:55.352Z,-3276.10
2023-03-02T05:04:22.634Z,-3276.10
2023-03-02T05:06:49.817Z,-3276.10
2023-03-02T05:09:16.765Z,-3276.10
2023-03-02T05:11:43.782Z,-3276.10
2023-03-02T05:14:12.797Z,-3276.10
2023-03-02T05:16:41.579Z,-3276.10
2023-03-02T05:19:10.572Z,-3276.00
2023-03-02T05:21:37.850Z,-3276.00
2023-03-02T05:24:05.271Z,-3276.00
2023-03-02T05:26:32.718Z,-3276.00
2023-03-02T05:28:59.870Z,-3276.00
2023-03-02T05:31:40.746Z,-3276.00
2023-03-02T05:34:10.155Z,-3276.00
2023-03-02T05:36:37.924Z,-3276.00
2023-03-02T05:39:05.970Z,-3276.00
2023-03-02T05:41:33.039Z,-3276.00
2023-03-02T05:44:00.529Z,-3275.90
2023-03-02T05:46:27.860Z,-3275.90
2023-03-02T05:48:54.949Z,-3275.90
2023-03-02T05:51:22.060Z,-3275.90
2023-03-02T05:53:49.390Z,-3275.90
2023-03-02T05:56:16.454Z,-3275.90
2023-03-02T05:58:43.540Z,-3275.90
2023-03-02T06:01:13.555Z,-3275.90
2023-03-02T06:03:42.610Z,-3275.90
2023-03-02T06:06:14.292Z,-3275.80
2023-03-02T06:08:42.680Z,-3275.80
2023-03-02T06:11:10.055Z,-3275.80
2023-03-02T06:13:37.370Z,-3275.80
2023-03-02T06:16:04.895Z,-3275.80
2023-03-02T06:18:31.947Z,-3275.80
2023-03-02T06:20:59.679Z,-3275.80
2023-03-02T06:23:26.733Z,-3275.80
2023-03-02T06:25:54.334Z,-3275.80
2023-03-02T06:28:22.079Z,-3275.80
2023-03-02T06:30:49.672Z,-3275.70
2023-03-02T06:33:18.212Z,-3275.70
2023-03-02T06:35:45.409Z,-3275.70
2023-03-02T06:38:12.572Z,-3275.70
2023-03-02T06:40:39.657Z,-3275.70
2023-03-02T06:43:06.686Z,-3275.70
2023-03-02T06:45:37.810Z,-3275.70
2023-03-02T06:48:05.614Z,-3275.70
2023-03-02T06:50:33.146Z,-3275.70
2023-03-02T06:53:00.303Z,-3275.70
2023-03-02T06:55:27.557Z,-3275.70
2023-03-02T06:57:54.783Z,-3275.70
2023-03-02T07:00:28.206Z,-3275.70
2023-03-02T07:02:56.229Z,-3275.70
2023-03-02T07:05:24.440Z,-3275.70
2023-03-02T07:07:52.011Z,-3275.70
2023-03-02T07:10:19.103Z,-3275.80
2023-03-02T07:12:46.096Z,-3275.70
2023-03-02T07:15:14.430Z,-3275.80
2023-03-02T07:17:43.132Z,-3275.80
2023-03-02T07:20:15.361Z,-3275.70
2023-03-02T07:22:43.261Z,-3275.70
2023-03-02T07:25:11.563Z,-3275.80
2023-03-02T07:27:39.162Z,-3275.80
2023-03-02T07:30:07.039Z,-3275.80
2023-03-02T07:32:34.247Z,-3275.80
2023-03-02T07:35:01.356Z,-3275.90
2023-03-02T07:37:28.430Z,-3275.90
2023-03-02T07:39:55.434Z,-3275.90
2023-03-02T07:42:22.537Z,-3276.00
2023-03-02T07:44:54.336Z,-3276.00
2023-03-02T07:47:21.863Z,-3276.10
2023-03-02T07:49:48.876Z,-3276.10
2023-03-02T07:52:16.054Z,-3276.20
2023-03-02T07:54:43.187Z,-3276.20
2023-03-02T07:57:10.222Z,-3276.30
2023-03-02T07:59:37.184Z,-3276.30
2023-03-02T08:02:04.449Z,-3276.30
2023-03-02T08:04:31.800Z,-3276.40
2023-03-02T08:06:58.834Z,-3276.40
2023-03-02T08:09:25.838Z,-3276.60
2023-03-02T08:11:52.924Z,-3276.60
2023-03-02T08:14:20.101Z,-3276.60
2023-03-02T08:16:47.142Z,-3276.70
2023-03-02T08:19:14.267Z,0.00
2023-03-02T08:21:41.384Z,0.00
2023-03-02T08:24:08.624Z,0.00
2023-03-02T08:26:35.590Z,0.00
2023-03-02T08:29:02.861Z,0.10
2023-03-02T08:31:29.979Z,0.20
2023-03-02T08:33:57.157Z,0.30
2023-03-02T08:36:24.189Z,0.40
2023-03-02T08:38:51.231Z,0.40
2023-03-02T08:41:23.126Z,0.50
2023-03-02T08:43:54.226Z,0.50
2023-03-02T08:46:21.553Z,0.60
2023-03-02T08:48:51.319Z,0.70
2023-03-02T08:51:21.974Z,0.80
2023-03-02T08:53:50.935Z,0.90
2023-03-02T08:56:24.155Z,0.90
2023-03-02T08:58:53.369Z,1.00
2023-03-02T09:01:23.515Z,1.00
2023-03-02T09:03:51.235Z,1.10
2023-03-02T09:06:18.467Z,1.20
2023-03-02T09:08:45.556Z,1.20
2023-03-02T09:11:12.608Z,1.30
2023-03-02T09:13:39.977Z,1.40
2023-03-02T09:16:08.767Z,1.40
2023-03-02T09:18:36.634Z,1.50
2023-03-02T09:21:04.408Z,1.60
2023-03-02T09:23:32.626Z,1.60
2023-03-02T09:26:00.022Z,1.70
2023-03-02T09:28:27.303Z,1.80
2023-03-02T09:30:58.605Z,1.90
2023-03-02T09:33:26.096Z,2.00
2023-03-02T09:35:53.209Z,2.00
2023-03-02T09:38:20.420Z,2.20
2023-03-02T09:41:13.533Z,2.30
2023-03-02T09:44:13.832Z,2.30
2023-03-02T09:46:51.685Z,2.50
2023-03-02T09:49:44.760Z,2.50
2023-03-02T09:52:33.333Z,2.70
2023-03-02T09:55:20.092Z,2.80
2023-03-02T09:57:47.356Z,2.90
2023-03-02T10:00:23.907Z,3.00
2023-03-02T10:03:00.498Z,3.10
2023-03-02T10:05:35.607Z,3.30
2023-03-02T10:08:02.645Z,3.40
2023-03-02T10:10:34.899Z,3.50
2023-03-02T10:13:29.044Z,3.70
2023-03-02T10:15:59.097Z,3.90
2023-03-02T10:18:47.134Z,4.00
2023-03-02T10:21:37.438Z,4.10
2023-03-02T10:24:12.734Z,4.30
2023-03-02T10:26:55.055Z,4.40
2023-03-02T10:29:30.913Z,4.50
2023-03-02T10:32:04.932Z,4.60
2023-03-02T10:34:32.045Z,4.80
2023-03-02T10:36:59.080Z,4.90
2023-03-02T10:39:26.150Z,5.00
2023-03-02T10:42:06.866Z,5.20
2023-03-02T10:44:41.596Z,5.30
2023-03-02T10:47:24.534Z,5.40
2023-03-02T10:49:53.189Z,5.50
2023-03-02T10:52:23.052Z,5.60
2023-03-02T10:54:50.214Z,5.70
2023-03-02T10:57:35.217Z,5.90
2023-03-02T11:00:14.554Z,5.90
2023-03-02T11:02:56.760Z,6.00
2023-03-02T11:05:28.546Z,6.10
2023-03-02T11:07:57.273Z,6.20
2023-03-02T11:10:29.147Z,6.30
2023-03-02T11:12:56.320Z,6.40
2023-03-02T11:15:36.989Z,6.40
2023-03-02T11:18:25.120Z,6.50
2023-03-02T11:21:08.992Z,6.60
2023-03-02T11:23:35.964Z,6.60
2023-03-02T11:26:13.972Z,6.80
2023-03-02T11:28:48.482Z,6.90
2023-03-02T11:31:27.883Z,7.00
2023-03-02T11:34:38.146Z,7.10
2023-03-02T11:37:19.994Z,7.20
2023-03-02T11:39:56.894Z,7.30
2023-03-02T11:42:30.636Z,7.40
2023-03-02T11:45:03.195Z,7.40
2023-03-02T11:47:33.758Z,7.50
2023-03-02T11:50:07.616Z,7.60
2023-03-02T11:52:39.631Z,7.70
2023-03-02T11:55:12.516Z,7.70
2023-03-02T11:57:48.625Z,7.80
2023-03-02T12:00:34.755Z,7.90
2023-03-02T12:03:07.298Z,7.90
2023-03-02T12:05:37.876Z,7.90
2023-03-02T12:08:19.972Z,7.90
2023-03-02T12:11:08.114Z,7.90
2023-03-02T12:13:37.723Z,8.00
2023-03-02T12:16:38.555Z,8.00
2023-03-02T12:19:27.141Z,8.00
2023-03-02T12:21:59.280Z,8.10
2023-03-02T12:24:32.361Z,8.20
2023-03-02T12:27:02.631Z,8.30
2023-03-02T12:29:43.656Z,8.40
2023-03-02T12:32:23.024Z,8.40
2023-03-02T12:35:01.823Z,8.50
2023-03-02T12:37:45.639Z,8.60
2023-03-02T12:40:34.131Z,8.60
2023-03-02T12:43:22.205Z,8.70
2023-03-02T12:46:20.069Z,8.80
2023-03-02T12:49:10.025Z,8.90
2023-03-02T12:51:57.808Z,9.00
2023-03-02T12:54:30.211Z,9.00
2023-03-02T12:57:17.244Z,9.10
2023-03-02T12:59:52.393Z,9.10
2023-03-02T13:02:25.988Z,9.20
2023-03-02T13:04:59.077Z,9.20
2023-03-02T13:07:36.669Z,9.30
2023-03-02T13:10:19.903Z,9.30
2023-03-02T13:12:47.369Z,9.40
2023-03-02T13:15:17.173Z,9.40
2023-03-02T13:17:45.725Z,9.50
2023-03-02T13:20:14.746Z,9.40
2023-03-02T13:22:42.066Z,9.50
2023-03-02T13:25:23.026Z,9.60
2023-03-02T13:28:00.692Z,9.60
2023-03-02T13:30:31.313Z,9.70
2023-03-02T13:33:04.177Z,9.80
2023-03-02T13:35:36.122Z,9.90
2023-03-02T13:38:16.805Z,9.90
2023-03-02T13:40:53.474Z,10.00
2023-03-02T13:43:29.152Z,10.10
2023-03-02T13:45:57.695Z,10.20
2023-03-02T13:48:25.066Z,10.20
2023-03-02T13:50:56.456Z,10.30
2023-03-02T13:53:24.567Z,10.30
2023-03-02T13:55:54.176Z,10.40
2023-03-02T13:58:22.831Z,10.40
2023-03-02T14:00:51.132Z,10.50
2023-03-02T14:03:26.523Z,10.50
2023-03-02T14:05:54.500Z,10.50
2023-03-02T14:08:21.967Z,10.60
2023-03-02T14:10:51.641Z,10.70
2023-03-02T14:13:29.196Z,10.70
2023-03-02T14:15:56.272Z,10.70
2023-03-02T14:18:35.418Z,10.80
2023-03-02T14:21:02.709Z,10.80
2023-03-02T14:23:29.861Z,10.80
2023-03-02T14:25:57.542Z,10.80
2023-03-02T14:28:37.428Z,10.80
2023-03-02T14:31:04.580Z,10.80
2023-03-02T14:33:31.558Z,10.80
2023-03-02T14:35:59.229Z,10.80
2023-03-02T14:38:27.206Z,10.80
2023-03-02T14:40:54.415Z,10.90
2023-03-02T14:43:23.458Z,10.90
2023-03-02T14:45:50.627Z,10.90
2023-03-02T14:48:17.649Z,10.90
2023-03-02T14:50:48.761Z,11.00
2023-03-02T14:53:28.868Z,11.10
2023-03-02T14:55:55.929Z,11.10
2023-03-02T14:58:31.466Z,11.10
2023-03-02T15:00:58.672Z,11.10
2023-03-02T15:03:26.924Z,11.10
2023-03-02T15:06:01.346Z,11.10
2023-03-02T15:08:29.322Z,11.10
2023-03-02T15:10:56.567Z,11.10
2023-03-02T15:13:23.561Z,11.10
2023-03-02T15:15:50.578Z,11.10
2023-03-02T15:18:19.804Z,11.10
2023-03-02T15:20:47.142Z,11.10
2023-03-02T15:23:14.156Z,11.10
2023-03-02T15:25:41.143Z,11.00
2023-03-02T15:28:08.148Z,11.00
2023-03-02T15:30:35.126Z,11.00
2023-03-02T15:33:02.172Z,10.90
2023-03-02T15:35:29.505Z,10.90
2023-03-02T15:37:58.371Z,10.90
2023-03-02T15:40:25.880Z,10.80
2023-03-02T15:42:53.227Z,10.80
2023-03-02T15:45:20.328Z,10.80
2023-03-02T15:47:47.435Z,10.70
2023-03-02T15:50:14.501Z,10.60
2023-03-02T15:52:42.031Z,10.50
2023-03-02T15:55:09.724Z,10.50
2023-03-02T15:57:38.956Z,10.40
2023-03-02T16:00:06.803Z,10.30
2023-03-02T16:02:34.347Z,10.20
2023-03-02T16:05:01.383Z,10.10
2023-03-02T16:07:28.425Z,10.00
2023-03-02T16:09:55.419Z,9.90
2023-03-02T16:12:25.082Z,9.90
2023-03-02T16:14:52.025Z,9.80
2023-03-02T16:17:19.320Z,9.70
2023-03-02T16:19:46.291Z,9.70
2023-03-02T16:22:13.330Z,9.60
2023-03-02T16:24:41.833Z,9.50
2023-03-02T16:27:09.032Z,9.40
2023-03-02T16:29:35.989Z,9.40
2023-03-02T16:32:03.201Z,9.40
2023-03-02T16:34:30.308Z,9.40
2023-03-02T16:36:57.367Z,9.30
2023-03-02T16:39:24.657Z,9.20
2023-03-02T16:41:51.780Z,9.20
2023-03-02T16:44:19.326Z,9.10
2023-03-02T16:46:46.775Z,9.00
2023-03-02T16:49:14.262Z,9.00
2023-03-02T16:51:42.809Z,8.90
2023-03-02T16:54:10.734Z,8.90
2023-03-02T16:56:37.855Z,8.80
2023-03-02T16:59:04.825Z,8.70
2023-03-02T17:01:31.947Z,8.60
2023-03-02T17:03:58.966Z,8.60
2023-03-02T17:06:26.066Z,8.50
2023-03-02T17:08:53.105Z,8.40
2023-03-02T17:11:20.553Z,8.40
2023-03-02T17:13:47.518Z,8.30
2023-03-02T17:16:16.276Z,8.20
2023-03-02T17:18:46.944Z,8.10
2023-03-02T17:21:16.262Z,8.00
2023-03-02T17:23:43.672Z,7.90
2023-03-02T17:26:10.738Z,7.90
2023-03-02T17:28:38.645Z,7.70
2023-03-02T17:31:05.808Z,7.70
2023-03-02T17:33:33.993Z,7.60
2023-03-02T17:36:07.455Z,7.50
2023-03-02T17:38:34.621Z,7.50
2023-03-02T17:41:03.603Z,7.40
2023-03-02T17:43:35.586Z,7.20
2023-03-02T17:46:11.683Z,7.20
2023-03-02T17:48:38.874Z,7.10
2023-03-02T17:51:06.018Z,7.00
2023-03-02T17:53:33.109Z,6.90
2023-03-02T17:56:00.115Z,6.90
2023-03-02T17:58:35.952Z,6.80
2023-03-02T18:01:10.017Z,6.70
2023-03-02T18:03:37.748Z,6.70
2023-03-02T18:06:05.410Z,6.60
2023-03-02T18:08:33.252Z,6.50
2023-03-02T18:11:00.585Z,6.40
2023-03-02T18:13:27.656Z,6.40
2023-03-02T18:15:54.861Z,6.20
2023-03-02T18:18:21.891Z,6.20
2023-03-02T18:20:48.833Z,6.20
2023-03-02T18:23:15.816Z,6.00
2023-03-02T18:25:42.784Z,6.00
2023-03-02T18:28:09.699Z,5.90
2023-03-02T18:30:36.792Z,5.90
2023-03-02T18:33:03.898Z,5.80
2023-03-02T18:35:31.005Z,5.80
2023-03-02T18:37:58.016Z,5.70
2023-03-02T18:40:25.040Z,5.60
2023-03-02T18:42:51.980Z,5.50
2023-03-02T18:45:29.021Z,5.50
2023-03-02T18:47:57.453Z,5.40
2023-03-02T18:50:25.120Z,5.40
2023-03-02T18:52:53.006Z,5.30
2023-03-02T18:55:21.327Z,5.30
2023-03-02T18:57:48.347Z,5.20
2023-03-02T19:00:21.694Z,5.20
2023-03-02T19:02:48.999Z,5.10
2023-03-02T19:05:19.462Z,5.00
2023-03-02T19:07:47.346Z,4.90
2023-03-02T19:10:15.247Z,4.90
2023-03-02T19:12:42.401Z,4.90
2023-03-02T19:15:10.916Z,4.80
2023-03-02T19:17:39.782Z,4.80
2023-03-02T19:20:07.584Z,4.70
2023-03-02T19:22:34.695Z,4.70
2023-03-02T19:25:01.765Z,4.70
2023-03-02T19:27:28.740Z,4.70
2023-03-02T19:29:55.731Z,4.60
2023-03-02T19:32:22.791Z,4.50
2023-03-02T19:34:49.896Z,4.50
2023-03-02T19:37:17.031Z,4.50
2023-03-02T19:39:44.105Z,4.40
2023-03-02T19:42:11.366Z,4.40
2023-03-02T19:44:38.356Z,4.30
2023-03-02T19:47:06.278Z,4.30
2023-03-02T19:49:33.254Z,4.30
2023-03-02T19:52:02.071Z,4.20
2023-03-02T19:54:29.070Z,4.20
2023-03-02T19:56:56.177Z,4.20
2023-03-02T19:59:24.445Z,4.10
2023-03-02T20:01:52.896Z,4.10
2023-03-02T20:04:20.130Z,4.00
2023-03-02T20:06:47.182Z,4.00
2023-03-02T20:09:19.458Z,4.00
2023-03-02T20:11:47.681Z,4.00
2023-03-02T20:14:27.634Z,3.90
2023-03-02T20:17:00.998Z,3.90
2023-03-02T20:19:28.049Z,3.90
2023-03-02T20:21:55.130Z,3.90
2023-03-02T20:24:22.115Z,3.90
2023-03-02T20:26:49.339Z,3.90
2023-03-02T20:29:16.929Z,3.80
2023-03-02T20:31:44.622Z,3.80
2023-03-02T20:34:15.975Z,3.80
2023-03-02T20:36:44.150Z,3.80
2023-03-02T20:39:16.130Z,3.70
2023-03-02T20:41:43.668Z,3.70
2023-03-02T20:44:13.422Z,3.70
2023-03-02T20:46:48.401Z,3.70
2023-03-02T20:49:16.205Z,3.70
2023-03-02T20:51:49.338Z,3.70
2023-03-02T20:54:16.971Z,3.70
2023-03-02T20:56:44.689Z,3.60
2023-03-02T20:59:13.386Z,3.60
2023-03-02T21:01:41.016Z,3.60
2023-03-02T21:04:08.260Z,3.60
2023-03-02T21:06:35.367Z,3.60
2023-03-02T21:09:04.789Z,3.60
2023-03-02T21:11:32.664Z,3.60
2023-03-02T21:14:02.009Z,3.60
2023-03-02T21:16:37.079Z,3.60
2023-03-02T21:19:10.079Z,3.50
2023-03-02T21:21:41.676Z,3.50
2023-03-02T21:24:16.895Z,3.50
2023-03-02T21:26:45.679Z,3.50
2023-03-02T21:29:14.090Z,3.50
2023-03-02T21:31:42.364Z,3.50
2023-03-02T21:34:10.095Z,3.50
2023-03-02T21:36:37.390Z,3.50
2023-03-02T21:39:06.934Z,3.40
2023-03-02T21:41:35.907Z,3.50
2023-03-02T21:44:05.543Z,3.40
2023-03-02T21:46:35.332Z,3.40
2023-03-02T21:49:03.023Z,3.40
2023-03-02T21:51:30.057Z,3.40
2023-03-02T21:53:57.849Z,3.40
2023-03-02T21:56:26.545Z,3.40
2023-03-02T21:58:55.754Z,3.40
2023-03-02T22:01:23.395Z,3.30
2023-03-02T22:03:50.468Z,3.30
2023-03-02T22:06:27.671Z,3.30
2023-03-02T22:08:55.871Z,3.30
2023-03-02T22:11:32.623Z,3.30
2023-03-02T22:14:02.994Z,3.20
2023-03-02T22:16:38.960Z,3.20
2023-03-02T22:19:25.528Z,3.20
2023-03-02T22:21:54.733Z,3.20
2023-03-02T22:24:27.509Z,3.20
2023-03-02T22:27:09.094Z,3.20
2023-03-02T22:29:44.934Z,3.10
2023-03-02T22:32:30.337Z,3.10
2023-03-02T22:35:08.527Z,3.10
2023-03-02T22:37:35.764Z,3.00
2023-03-02T22:40:29.106Z,3.00
2023-03-02T22:43:11.163Z,3.00
2023-03-02T22:45:40.172Z,3.00
2023-03-02T22:48:22.190Z,3.00
2023-03-02T22:50:50.371Z,3.00
2023-03-02T22:53:24.078Z,2.90
2023-03-02T22:55:56.859Z,2.90
2023-03-02T22:58:46.091Z,2.90
2023-03-02T23:01:39.017Z,2.90
2023-03-02T23:04:09.132Z,2.90
2023-03-02T23:06:47.304Z,2.90
2023-03-02T23:09:17.620Z,2.90
2023-03-02T23:11:45.420Z,2.90
2023-03-02T23:14:21.214Z,2.90
2023-03-02T23:17:01.663Z,2.90
2023-03-02T23:19:30.699Z,2.80
2023-03-02T23:21:58.423Z,2.80
2023-03-02T23:24:25.652Z,2.70
2023-03-02T23:26:53.254Z,2.70
2023-03-02T23:29:21.371Z,2.70
2023-03-02T23:31:49.038Z,2.60
2023-03-02T23:34:16.328Z,2.70
2023-03-02T23:36:43.779Z,2.60
2023-03-02T23:39:11.019Z,2.60
2023-03-02T23:41:39.003Z,2.60
2023-03-02T23:44:07.252Z,2.50
2023-03-02T23:46:34.189Z,2.50
2023-03-02T23:49:01.323Z,2.50
2023-03-02T23:51:28.374Z,2.50
2023-03-02T23:53:55.521Z,2.50
2023-03-02T23:56:22.976Z,2.50
2023-03-02T23:58:50.185Z,2.50
